createdAt,value
2022-11-17T00:03:14.841Z,76.86
2022-11-17T00:08:13.859Z,76.85
2022-11-17T00:13:32.099Z,77.22
2022-11-17T00:18:48.636Z,77.93
2022-11-17T00:23:50.708Z,79.59
2022-11-17T00:28:54.647Z,79.94
2022-11-17T00:34:08.552Z,79.81
2022-11-17T00:39:07.813Z,78.69
2022-11-17T00:44:08.935Z,79.18
2022-11-17T00:49:08.911Z,79.43
2022-11-17T00:54:08.806Z,78.86
2022-11-17T00:59:08.931Z,78.65
2022-11-17T01:04:08.282Z,79.44
2022-11-17T01:09:10.985Z,78.72
2022-11-17T01:14:14.115Z,78.28
2022-11-17T01:19:13.284Z,78.02
2022-11-17T01:24:13.547Z,78.64
2022-11-17T01:29:17.236Z,78.58
2022-11-17T01:34:16.068Z,78.73
2022-11-17T01:39:17.662Z,78.51
2022-11-17T01:44:53.595Z,79.11
2022-11-17T01:49:57.650Z,78.61
2022-11-17T01:54:58.546Z,78.00
2022-11-17T02:00:02.881Z,77.34
2022-11-17T02:05:18.031Z,76.99
2022-11-17T02:10:17.379Z,76.52
2022-11-17T02:15:16.356Z,76.41
2022-11-17T02:20:23.579Z,75.58
2022-11-17T02:25:39.840Z,75.50
2022-11-17T02:30:50.565Z,75.07
2022-11-17T02:35:57.391Z,74.87
2022-11-17T02:41:06.093Z,74.62
2022-11-17T02:46:09.864Z,74.63
2022-11-17T02:51:13.308Z,74.54
2022-11-17T02:56:12.132Z,74.52
2022-11-17T03:01:27.205Z,74.98
2022-11-17T03:06:36.039Z,75.11
2022-11-17T03:11:43.725Z,75.34
2022-11-17T03:16:52.711Z,75.54
2022-11-17T03:21:57.132Z,75.27
2022-11-17T03:27:01.850Z,75.28
2022-11-17T03:32:06.113Z,75.11
2022-11-17T03:37:08.274Z,75.08
2022-11-17T03:42:13.420Z,75.24
2022-11-17T03:47:14.565Z,75.41
2022-11-17T03:52:13.317Z,75.97
2022-11-17T03:57:15.932Z,75.70
2022-11-17T04:02:18.680Z,75.60
2022-11-17T04:07:17.550Z,75.57
2022-11-17T04:12:33.517Z,75.33
2022-11-17T04:17:33.573Z,75.17
2022-11-17T04:22:32.329Z,75.52
2022-11-17T04:27:48.338Z,75.71
2022-11-17T04:32:48.332Z,76.32
2022-11-17T04:37:47.025Z,76.40
2022-11-17T04:42:45.687Z,76.48
2022-11-17T04:47:44.397Z,76.80
2022-11-17T04:52:44.876Z,76.77
2022-11-17T04:57:46.251Z,76.91
2022-11-17T05:02:44.955Z,77.42
2022-11-17T05:07:45.260Z,77.26
2022-11-17T05:13:01.365Z,76.91
2022-11-17T05:18:01.166Z,77.18
2022-11-17T05:23:20.416Z,76.70
2022-11-17T05:28:19.505Z,76.32
2022-11-17T05:33:18.858Z,76.32
2022-11-17T05:38:18.943Z,75.57
2022-11-17T05:43:17.717Z,75.36
2022-11-17T05:48:16.688Z,74.78
2022-11-17T05:53:15.407Z,74.33
2022-11-17T05:58:21.171Z,74.42
2022-11-17T06:03:24.528Z,74.17
2022-11-17T06:08:23.272Z,74.01
2022-11-17T06:13:26.193Z,73.27
2022-11-17T06:18:28.591Z,72.67
2022-11-17T06:23:30.110Z,72.15
2022-11-17T06:28:32.348Z,71.78
2022-11-17T06:33:33.798Z,71.68
2022-11-17T06:38:34.466Z,71.14
2022-11-17T06:43:34.963Z,71.52
2022-11-17T06:48:36.749Z,71.17
2022-11-17T06:53:36.294Z,70.74
2022-11-17T06:58:38.470Z,70.55
2022-11-17T07:03:38.704Z,70.30
2022-11-17T07:08:38.537Z,70.16
2022-11-17T07:13:39.401Z,69.80
2022-11-17T07:18:38.949Z,69.99
2022-11-17T07:23:39.220Z,69.51
2022-11-17T07:28:39.635Z,69.35
2022-11-17T07:33:41.609Z,69.20
2022-11-17T07:38:45.683Z,68.96
2022-11-17T07:43:49.332Z,68.74
2022-11-17T07:48:48.139Z,68.66
2022-11-17T07:53:46.926Z,68.78
2022-11-17T07:58:45.713Z,68.94
2022-11-17T08:03:46.143Z,70.68
2022-11-17T08:08:44.951Z,72.02
2022-11-17T08:13:43.826Z,73.03
2022-11-17T08:18:45.952Z,73.70
2022-11-17T08:23:51.304Z,76.63
2022-11-17T08:28:53.709Z,78.15
2022-11-17T08:33:56.837Z,79.15
2022-11-17T08:38:57.099Z,80.02
2022-11-17T08:43:56.137Z,82.01
2022-11-17T08:48:57.151Z,83.28
2022-11-17T08:53:59.829Z,85.52
2022-11-17T08:58:58.544Z,88.94
2022-11-17T09:03:57.328Z,89.11
2022-11-17T09:08:57.827Z,92.26
2022-11-17T09:13:56.811Z,94.51
2022-11-17T09:18:57.123Z,94.94
2022-11-17T09:23:57.316Z,96.32
2022-11-17T09:28:56.023Z,95.90
2022-11-17T09:33:54.890Z,96.09
2022-11-17T09:38:53.748Z,99.56
2022-11-17T09:44:03.765Z,98.38
2022-11-17T09:49:11.999Z,100.00
2022-11-17T09:54:19.796Z,100.00
2022-11-17T09:59:23.028Z,100.00
2022-11-17T10:04:22.597Z,99.83
2022-11-17T10:09:36.233Z,99.73
2022-11-17T10:14:40.806Z,99.48
2022-11-17T10:19:39.932Z,100.00
2022-11-17T10:24:41.608Z,100.00
2022-11-17T10:29:41.703Z,100.00
2022-11-17T10:34:41.579Z,100.00
2022-11-17T10:39:42.781Z,100.00
2022-11-17T10:44:44.503Z,100.00
2022-11-17T10:49:43.244Z,100.00
2022-11-17T10:54:42.064Z,100.00
2022-11-17T10:59:49.676Z,98.46
2022-11-17T11:05:07.731Z,97.17
2022-11-17T11:10:15.947Z,97.47
2022-11-17T11:15:21.195Z,96.50
2022-11-17T11:20:22.774Z,97.17
2022-11-17T11:25:35.058Z,96.23
2022-11-17T11:30:39.770Z,95.65
2022-11-17T11:35:50.314Z,95.26
2022-11-17T11:41:06.317Z,97.68
2022-11-17T11:46:27.490Z,96.53
2022-11-17T11:51:30.778Z,95.69
2022-11-17T11:56:34.593Z,93.01
2022-11-17T12:01:45.355Z,88.95
2022-11-17T12:06:53.983Z,86.51
2022-11-17T12:12:03.967Z,85.73
2022-11-17T12:17:07.971Z,85.26
2022-11-17T12:22:06.773Z,84.22
2022-11-17T12:27:32.699Z,81.84
2022-11-17T12:32:55.457Z,81.49
2022-11-17T12:38:27.549Z,80.23
2022-11-17T12:43:27.822Z,79.25
2022-11-17T12:48:34.761Z,78.79
2022-11-17T12:53:53.658Z,76.77
2022-11-17T12:59:06.063Z,72.83
2022-11-17T13:04:13.327Z,72.28
2022-11-17T13:09:13.274Z,70.10
2022-11-17T13:14:14.515Z,67.92
2022-11-17T13:19:33.661Z,67.44
2022-11-17T13:24:35.213Z,69.25
2022-11-17T13:29:34.100Z,69.34
2022-11-17T13:34:34.271Z,69.29
2022-11-17T13:39:32.982Z,68.25
2022-11-17T13:44:34.180Z,68.55
2022-11-17T13:49:35.960Z,68.61
2022-11-17T13:54:37.133Z,68.51
2022-11-17T13:59:43.385Z,68.12
2022-11-17T14:05:24.139Z,68.27
2022-11-17T14:10:33.507Z,67.03
2022-11-17T14:15:35.429Z,67.12
2022-11-17T14:20:37.415Z,67.57
2022-11-17T14:25:40.643Z,67.89
2022-11-17T14:30:40.266Z,69.38
2022-11-17T14:35:40.875Z,68.98
2022-11-17T14:40:42.720Z,70.04
2022-11-17T14:45:44.606Z,71.51
2022-11-17T14:50:44.673Z,71.34
2022-11-17T14:55:44.402Z,72.32
2022-11-17T15:00:43.462Z,74.65
2022-11-17T15:05:47.450Z,76.19
2022-11-17T15:10:46.950Z,77.08
2022-11-17T15:15:45.880Z,78.05
2022-11-17T15:20:44.777Z,79.27
2022-11-17T15:25:45.063Z,79.05
2022-11-17T15:30:44.136Z,78.06
2022-11-17T15:35:43.063Z,78.68
2022-11-17T15:40:42.002Z,80.11
2022-11-17T15:45:45.214Z,80.44
2022-11-17T15:50:44.061Z,81.80
2022-11-17T15:55:42.884Z,81.76
2022-11-17T16:00:43.193Z,82.62
2022-11-17T16:05:42.140Z,81.88
2022-11-17T16:10:41.263Z,82.45
2022-11-17T16:15:40.146Z,81.54
2022-11-17T16:20:40.374Z,83.29
2022-11-17T16:25:41.340Z,82.50
2022-11-17T16:30:40.493Z,82.23
2022-11-17T16:35:46.247Z,82.54
2022-11-17T16:40:45.471Z,81.37
2022-11-17T16:45:46.171Z,81.59
2022-11-17T16:50:50.818Z,81.49
2022-11-17T16:55:55.973Z,82.97
2022-11-17T17:00:59.264Z,82.11
2022-11-17T17:06:05.421Z,82.10
2022-11-17T17:11:09.449Z,81.01
2022-11-17T17:16:11.575Z,81.34
2022-11-17T17:21:22.101Z,81.04
2022-11-17T17:26:23.605Z,81.92
2022-11-17T17:31:25.186Z,81.87
2022-11-17T17:36:27.202Z,81.08
2022-11-17T17:41:29.542Z,80.85
2022-11-17T17:46:30.843Z,80.50
2022-11-17T17:51:32.138Z,80.65
2022-11-17T17:56:36.641Z,80.90
2022-11-17T18:01:40.875Z,79.68
2022-11-17T18:06:44.574Z,79.21
2022-11-17T18:11:47.987Z,78.40
2022-11-17T18:16:48.088Z,78.18
2022-11-17T18:21:52.747Z,78.44
2022-11-17T18:26:54.129Z,79.73
2022-11-17T18:31:54.198Z,78.65
2022-11-17T18:36:59.225Z,78.41
2022-11-17T18:41:58.380Z,77.46
2022-11-17T18:47:02.502Z,77.69
2022-11-17T18:52:04.678Z,76.90
2022-11-17T18:57:04.688Z,75.97
2022-11-17T19:02:03.447Z,76.47
2022-11-17T19:07:03.638Z,76.34
2022-11-17T19:12:02.377Z,75.96
2022-11-17T19:17:01.217Z,75.87
2022-11-17T19:22:02.167Z,76.34
2022-11-17T19:27:02.251Z,76.16
2022-11-17T19:32:01.005Z,75.75
2022-11-17T19:36:59.873Z,75.97
2022-11-17T19:42:00.650Z,75.44
2022-11-17T19:47:03.557Z,75.82
2022-11-17T19:52:02.286Z,75.28
2022-11-17T19:57:02.200Z,74.82
2022-11-17T20:02:03.297Z,74.09
2022-11-17T20:07:02.173Z,73.58
2022-11-17T20:12:01.011Z,73.33
2022-11-17T20:16:59.844Z,73.47
2022-11-17T20:22:01.112Z,72.78
2022-11-17T20:27:01.280Z,72.12
2022-11-17T20:32:00.130Z,72.06
2022-11-17T20:37:43.000Z,71.65
2022-11-17T20:42:42.301Z,71.80
2022-11-17T20:47:41.205Z,72.25
2022-11-17T20:52:40.512Z,71.46
2022-11-17T20:57:40.610Z,70.99
2022-11-17T21:02:39.328Z,71.20
2022-11-17T21:07:38.923Z,70.75
2022-11-17T21:12:37.730Z,70.59
2022-11-17T21:17:55.377Z,70.68
2022-11-17T21:22:54.091Z,70.40
2022-11-17T21:27:53.004Z,69.98
2022-11-17T21:32:53.167Z,70.27
2022-11-17T21:37:51.987Z,70.56
2022-11-17T21:42:50.748Z,70.38
2022-11-17T21:47:49.551Z,71.55
2022-11-17T21:52:49.661Z,71.91
2022-11-17T21:57:51.424Z,71.88
2022-11-17T22:02:50.241Z,71.17
2022-11-17T22:07:50.408Z,71.61
2022-11-17T22:12:49.201Z,71.28
2022-11-17T22:17:48.726Z,71.69
2022-11-17T22:22:49.227Z,71.69
2022-11-17T22:27:49.466Z,71.94
2022-11-17T22:32:48.275Z,72.45
2022-11-17T22:37:47.604Z,73.21
2022-11-17T22:42:46.344Z,72.79
2022-11-17T22:47:46.527Z,72.25
2022-11-17T22:52:45.231Z,71.88
2022-11-17T22:57:44.401Z,71.80
2022-11-17T23:02:43.036Z,71.66
2022-11-17T23:07:43.223Z,71.92
2022-11-17T23:12:42.318Z,72.07
2022-11-17T23:17:42.138Z,72.00
2022-11-17T23:22:42.221Z,71.87
2022-11-17T23:27:40.893Z,71.96
2022-11-17T23:32:39.607Z,71.86
2022-11-17T23:37:39.003Z,71.64
2022-11-17T23:42:43.109Z,71.30
2022-11-17T23:47:42.192Z,71.31
2022-11-17T23:52:40.937Z,71.34
2022-11-17T23:57:41.193Z,71.15
